createdAt,value
2022-09-28T00:01:21.808Z,1.63
2022-09-28T00:03:51.483Z,4.00
2022-09-28T00:06:20.964Z,2.78
2022-09-28T00:08:50.098Z,3.63
2022-09-28T00:11:18.771Z,3.55
2022-09-28T00:13:48.726Z,6.03
2022-09-28T00:16:17.246Z,3.75
2022-09-28T00:18:44.651Z,3.22
2022-09-28T00:21:26.875Z,1.63
2022-09-28T00:24:14.923Z,4.95
2022-09-28T00:26:56.012Z,5.47
2022-09-28T00:29:31.550Z,4.68
2022-09-28T00:32:06.639Z,5.97
2022-09-28T00:34:38.060Z,5.00
2022-09-28T00:37:06.391Z,2.90
2022-09-28T00:39:32.970Z,2.42
2022-09-28T00:42:01.629Z,6.07
2022-09-28T00:44:44.134Z,3.08
2022-09-28T00:49:46.944Z,4.80
2022-09-28T00:52:18.244Z,4.93
2022-09-28T00:54:46.853Z,3.85
2022-09-28T00:57:13.864Z,4.40
2022-09-28T00:59:40.804Z,2.92
2022-09-28T01:02:07.458Z,4.55
2022-09-28T01:04:36.351Z,3.60
2022-09-28T01:07:07.003Z,3.42
2022-09-28T01:09:33.631Z,3.22
2022-09-28T01:12:00.137Z,4.00
2022-09-28T01:14:26.941Z,4.63
2022-09-28T01:16:53.395Z,4.13
2022-09-28T01:19:55.267Z,4.15
2022-09-28T01:22:35.033Z,4.07
2022-09-28T01:25:14.621Z,3.38
2022-09-28T01:28:16.577Z,3.63
2022-09-28T01:31:14.496Z,3.92
2022-09-28T01:33:55.536Z,3.00
2022-09-28T01:36:28.174Z,3.38
2022-09-28T01:38:56.622Z,4.45
2022-09-28T01:41:25.281Z,4.43
2022-09-28T01:43:57.543Z,4.80
2022-09-28T01:46:29.176Z,4.15
2022-09-28T01:49:02.364Z,4.70
2022-09-28T01:51:46.377Z,4.25
2022-09-28T01:54:14.623Z,5.47
2022-09-28T01:56:51.473Z,3.90
2022-09-28T01:59:40.856Z,3.28
2022-09-28T02:02:16.621Z,4.25
2022-09-28T02:04:48.426Z,4.35
2022-09-28T02:07:21.640Z,4.47
2022-09-28T02:09:52.394Z,3.33
2022-09-28T02:12:22.717Z,4.72
2022-09-28T02:14:52.881Z,4.35
2022-09-28T02:17:20.299Z,4.05
2022-09-28T02:19:47.326Z,4.90
2022-09-28T02:22:23.322Z,6.35
2022-09-28T02:25:05.504Z,4.72
2022-09-28T02:28:10.724Z,6.35
2022-09-28T02:30:38.917Z,4.90
2022-09-28T02:33:20.381Z,5.03
2022-09-28T02:35:47.226Z,5.30
2022-09-28T02:38:14.907Z,4.10
2022-09-28T02:40:44.382Z,4.70
2022-09-28T02:46:10.515Z,4.47
2022-09-28T02:49:24.036Z,4.03
2022-09-28T02:52:25.980Z,5.32
2022-09-28T02:55:01.762Z,4.30
2022-09-28T02:57:42.198Z,6.28
2022-09-28T03:00:11.974Z,5.15
2022-09-28T03:02:59.285Z,5.68
2022-09-28T03:05:34.094Z,5.22
2022-09-28T03:08:05.910Z,5.20
2022-09-28T03:10:43.592Z,4.93
2022-09-28T03:13:11.223Z,7.45
2022-09-28T03:15:38.151Z,6.28
2022-09-28T03:18:04.811Z,4.70
2022-09-28T03:20:33.352Z,5.88
2022-09-28T03:23:23.241Z,6.07
2022-09-28T03:25:47.345Z,5.88
2022-09-28T03:28:14.265Z,6.22
2022-09-28T03:30:42.946Z,5.90
2022-09-28T03:33:09.736Z,4.78
2022-09-28T03:35:36.239Z,5.00
2022-09-28T03:38:02.737Z,4.97
2022-09-28T03:40:31.932Z,4.70
2022-09-28T03:43:00.364Z,5.75
2022-09-28T03:45:26.887Z,6.07
2022-09-28T03:47:53.606Z,5.70
2022-09-28T03:50:20.075Z,6.00
2022-09-28T03:52:48.092Z,4.95
2022-09-28T03:55:14.745Z,6.43
2022-09-28T03:57:41.602Z,5.47
2022-09-28T04:00:09.068Z,5.18
2022-09-28T04:02:41.211Z,6.43
2022-09-28T04:05:09.260Z,7.57
2022-09-28T04:07:37.218Z,4.70
2022-09-28T04:10:03.903Z,5.25
2022-09-28T04:12:30.999Z,6.35
2022-09-28T04:14:57.491Z,5.53
2022-09-28T04:17:24.058Z,5.05
2022-09-28T04:19:50.796Z,5.45
2022-09-28T04:22:24.207Z,5.15
2022-09-28T04:24:50.930Z,6.40
2022-09-28T04:27:36.367Z,4.93
2022-09-28T04:30:03.387Z,6.18
2022-09-28T04:32:31.811Z,6.13
2022-09-28T04:34:58.233Z,5.25
2022-09-28T04:37:24.711Z,7.53
2022-09-28T04:39:51.325Z,7.35
2022-09-28T04:42:19.159Z,5.60
2022-09-28T04:44:46.171Z,8.38
2022-09-28T04:47:12.764Z,6.57
2022-09-28T04:50:05.568Z,6.35
2022-09-28T04:52:36.774Z,6.22
2022-09-28T04:55:04.479Z,7.40
2022-09-28T04:57:31.191Z,6.22
2022-09-28T04:59:58.450Z,6.68
2022-09-28T05:02:25.016Z,6.03
2022-09-28T05:05:17.668Z,7.13
2022-09-28T05:08:02.588Z,5.75
2022-09-28T05:10:29.091Z,5.72
2022-09-28T05:12:55.675Z,5.90
2022-09-28T05:15:22.179Z,5.65
2022-09-28T05:17:48.880Z,6.53
2022-09-28T05:20:44.782Z,6.40
2022-09-28T05:23:12.257Z,7.70
2022-09-28T05:25:40.223Z,6.80
2022-09-28T05:28:20.375Z,6.82
2022-09-28T05:31:06.959Z,5.60
2022-09-28T05:33:50.953Z,5.68
2022-09-28T05:36:17.443Z,4.40
2022-09-28T05:38:43.976Z,6.88
2022-09-28T05:41:10.668Z,5.40
2022-09-28T05:43:38.792Z,7.72
2022-09-28T05:46:06.029Z,6.80
2022-09-28T05:51:02.144Z,7.60
2022-09-28T05:53:28.660Z,8.90
2022-09-28T05:55:58.495Z,7.00
2022-09-28T05:58:25.144Z,5.43
2022-09-28T06:00:56.960Z,7.78
2022-09-28T06:03:24.299Z,9.07
2022-09-28T06:05:51.039Z,5.82
2022-09-28T06:08:18.051Z,6.47
2022-09-28T06:10:49.655Z,4.22
2022-09-28T06:13:16.213Z,6.75
2022-09-28T06:15:43.504Z,5.53
2022-09-28T06:18:15.695Z,10.07
2022-09-28T06:21:02.771Z,6.03
2022-09-28T06:23:35.053Z,5.80
2022-09-28T06:26:01.579Z,5.47
2022-09-28T06:28:28.235Z,7.75
2022-09-28T06:30:55.909Z,5.95
2022-09-28T06:33:22.478Z,5.43
2022-09-28T06:35:49.010Z,6.40
2022-09-28T06:38:16.067Z,6.25
2022-09-28T06:40:42.694Z,6.13
2022-09-28T06:43:15.066Z,5.30
2022-09-28T06:46:01.011Z,5.60
2022-09-28T06:48:46.488Z,6.05
2022-09-28T06:51:17.511Z,5.93
2022-09-28T06:54:10.190Z,4.32
2022-09-28T06:56:40.203Z,7.13
2022-09-28T06:59:06.738Z,5.53
2022-09-28T07:01:34.771Z,6.57
2022-09-28T07:04:07.107Z,5.03
2022-09-28T07:06:52.613Z,5.70
2022-09-28T07:09:42.209Z,5.82
2022-09-28T07:12:32.161Z,6.40
2022-09-28T07:15:05.717Z,7.07
2022-09-28T07:17:40.339Z,6.82
2022-09-28T07:20:19.119Z,6.95
2022-09-28T07:22:48.275Z,9.13
2022-09-28T07:25:19.090Z,6.50
2022-09-28T07:28:04.805Z,5.68
2022-09-28T07:31:03.699Z,7.55
2022-09-28T07:33:53.744Z,5.75
2022-09-28T07:36:35.062Z,7.63
2022-09-28T07:39:02.587Z,9.32
2022-09-28T07:41:32.576Z,10.05
2022-09-28T07:44:06.231Z,7.65
2022-09-28T07:46:35.333Z,6.38
2022-09-28T07:49:11.351Z,5.80
2022-09-28T07:52:17.483Z,6.72
2022-09-28T07:55:07.213Z,6.35
2022-09-28T07:58:01.751Z,5.78
2022-09-28T08:00:45.374Z,6.65
2022-09-28T08:03:11.950Z,6.32
2022-09-28T08:05:39.072Z,8.48
2022-09-28T08:08:07.664Z,6.72
2022-09-28T08:10:34.344Z,6.07
2022-09-28T08:13:27.416Z,5.32
2022-09-28T08:16:00.602Z,7.70
2022-09-28T08:18:44.770Z,6.60
2022-09-28T08:21:29.821Z,3.88
2022-09-28T08:23:56.330Z,7.05
2022-09-28T08:26:22.824Z,7.68
2022-09-28T08:28:50.148Z,5.38
2022-09-28T08:31:39.517Z,4.88
2022-09-28T08:34:15.160Z,7.63
2022-09-28T08:36:58.224Z,6.40
2022-09-28T08:39:48.082Z,7.40
2022-09-28T08:42:40.850Z,6.72
2022-09-28T08:45:42.613Z,6.75
2022-09-28T08:48:56.225Z,3.35
2022-09-28T08:52:05.472Z,6.28
2022-09-28T08:54:56.835Z,5.47
2022-09-28T08:57:59.195Z,8.63
2022-09-28T09:00:47.508Z,3.35
2022-09-28T09:03:35.989Z,5.53
2022-09-28T09:06:52.757Z,5.53
2022-09-28T09:10:07.350Z,5.53
2022-09-28T09:15:17.333Z,6.20
2022-09-28T09:18:11.602Z,4.70
2022-09-28T09:21:02.726Z,4.63
2022-09-28T09:23:55.324Z,4.18
2022-09-28T09:26:30.713Z,7.43
2022-09-28T09:29:03.181Z,4.00
2022-09-28T09:32:02.976Z,3.83
2022-09-28T09:34:51.372Z,5.50
2022-09-28T09:38:11.711Z,3.75
2022-09-28T09:41:17.118Z,3.78
2022-09-28T09:44:15.051Z,5.75
2022-09-28T09:47:21.174Z,5.22
2022-09-28T09:50:06.848Z,3.97
2022-09-28T09:53:16.380Z,4.35
2022-09-28T09:55:45.603Z,3.08
2022-09-28T09:58:37.238Z,3.60
2022-09-28T10:01:18.390Z,3.42
2022-09-28T10:04:12.833Z,3.45
2022-09-28T10:06:41.276Z,4.50
2022-09-28T10:09:14.100Z,7.10
2022-09-28T10:11:46.729Z,4.68
2022-09-28T10:14:22.424Z,2.95
2022-09-28T10:17:02.503Z,6.40
2022-09-28T10:19:47.873Z,6.85
2022-09-28T10:22:33.126Z,3.05
2022-09-28T10:25:09.832Z,3.53
2022-09-28T10:27:40.600Z,3.30
2022-09-28T10:30:13.710Z,4.13
2022-09-28T10:32:44.460Z,4.60
2022-09-28T10:35:41.466Z,3.15
2022-09-28T10:38:18.580Z,3.05
2022-09-28T10:41:23.668Z,6.80
2022-09-28T10:44:06.362Z,2.58
2022-09-28T10:46:38.965Z,2.42
2022-09-28T10:49:17.140Z,4.43
2022-09-28T10:51:54.825Z,2.20
2022-09-28T10:54:27.056Z,2.78
2022-09-28T10:56:57.078Z,3.70
2022-09-28T10:59:40.849Z,2.67
2022-09-28T11:02:24.569Z,7.05
2022-09-28T11:04:59.605Z,3.80
2022-09-28T11:07:32.296Z,5.20
2022-09-28T11:10:00.826Z,5.97
2022-09-28T11:12:39.566Z,5.00
2022-09-28T11:15:07.455Z,5.43
2022-09-28T11:17:41.563Z,2.33
2022-09-28T11:22:56.916Z,5.53
2022-09-28T11:25:28.765Z,3.17
2022-09-28T11:27:57.013Z,3.78
2022-09-28T11:30:24.903Z,4.22
2022-09-28T11:33:20.158Z,4.00
2022-09-28T11:36:13.721Z,4.70
2022-09-28T11:38:46.040Z,3.10
2022-09-28T11:41:34.245Z,1.67
2022-09-28T11:44:34.805Z,2.33
2022-09-28T11:47:29.861Z,4.15
2022-09-28T11:50:22.960Z,3.80
2022-09-28T11:53:10.905Z,2.63
2022-09-28T11:55:47.501Z,5.05
2022-09-28T12:01:02.702Z,2.25
2022-09-28T12:03:48.387Z,1.52
2022-09-28T12:06:18.839Z,2.17
2022-09-28T12:08:54.126Z,2.15
2022-09-28T12:11:45.093Z,3.00
2022-09-28T12:14:27.392Z,3.00
2022-09-28T12:17:06.217Z,2.33
2022-09-28T12:19:40.135Z,1.83
2022-09-28T12:22:29.628Z,9.75
2022-09-28T12:24:57.688Z,2.65
2022-09-28T12:27:38.759Z,3.70
2022-09-28T12:30:19.323Z,2.22
2022-09-28T12:33:04.092Z,3.95
2022-09-28T12:36:04.742Z,5.00
2022-09-28T12:39:21.658Z,2.83
2022-09-28T12:44:59.379Z,4.88
2022-09-28T12:47:28.877Z,4.30
2022-09-28T12:53:26.879Z,4.30
2022-09-28T12:56:06.179Z,3.53
2022-09-28T12:58:44.428Z,2.50
2022-09-28T13:01:29.852Z,3.17
2022-09-28T13:04:19.707Z,2.88
2022-09-28T13:06:51.658Z,3.15
2022-09-28T13:09:25.694Z,4.88
2022-09-28T13:11:54.853Z,2.72
2022-09-28T13:15:00.476Z,2.58
2022-09-28T13:17:48.028Z,2.55
2022-09-28T13:20:27.407Z,3.03
2022-09-28T13:23:27.965Z,4.25
2022-09-28T13:26:17.334Z,2.67
2022-09-28T13:28:45.409Z,5.53
2022-09-28T13:31:13.124Z,6.30
2022-09-28T13:33:41.456Z,3.30
2022-09-28T13:36:26.534Z,5.40
2022-09-28T13:38:54.808Z,4.10
2022-09-28T13:41:33.977Z,5.40
2022-09-28T13:44:05.223Z,6.70
2022-09-28T13:46:50.329Z,4.00
2022-09-28T13:49:23.153Z,4.35
2022-09-28T13:52:05.918Z,3.10
2022-09-28T13:54:55.982Z,5.30
2022-09-28T13:57:36.306Z,4.63
2022-09-28T14:00:25.318Z,4.40
2022-09-28T14:03:04.252Z,4.35
2022-09-28T14:05:34.351Z,4.53
2022-09-28T14:08:18.127Z,5.50
2022-09-28T14:10:50.733Z,3.13
2022-09-28T14:13:44.850Z,3.40
2022-09-28T14:16:17.535Z,4.15
2022-09-28T14:19:24.224Z,4.00
2022-09-28T14:21:58.106Z,2.92
2022-09-28T14:25:03.384Z,5.70
2022-09-28T14:28:04.855Z,4.43
2022-09-28T14:30:43.181Z,3.67
2022-09-28T14:33:18.761Z,5.68
2022-09-28T14:35:56.509Z,2.63
2022-09-28T14:38:48.565Z,7.18
2022-09-28T14:41:34.362Z,3.70
2022-09-28T14:44:09.140Z,3.35
2022-09-28T14:46:44.710Z,2.10
2022-09-28T14:49:20.331Z,3.30
2022-09-28T14:51:53.080Z,4.57
2022-09-28T14:54:26.483Z,3.38
2022-09-28T14:56:52.921Z,2.83
2022-09-28T14:59:36.131Z,5.43
2022-09-28T15:02:12.332Z,4.10
2022-09-28T15:04:57.975Z,5.70
2022-09-28T15:07:28.720Z,4.28
2022-09-28T15:09:59.156Z,4.65
2022-09-28T15:12:30.481Z,2.88
2022-09-28T15:15:08.463Z,2.67
2022-09-28T15:17:39.727Z,2.25
2022-09-28T15:20:24.346Z,2.97
2022-09-28T15:22:57.162Z,2.60
2022-09-28T15:25:27.328Z,2.47
2022-09-28T15:28:03.360Z,4.50
2022-09-28T15:30:31.931Z,2.60
2022-09-28T15:33:20.410Z,1.42
2022-09-28T15:35:51.672Z,1.88
2022-09-28T15:38:18.357Z,2.63
2022-09-28T15:40:45.760Z,1.67
2022-09-28T15:43:28.911Z,2.47
2022-09-28T15:46:06.833Z,2.55
2022-09-28T15:48:51.960Z,2.22
2022-09-28T15:51:20.000Z,1.95
2022-09-28T15:53:58.199Z,3.00
2022-09-28T15:56:25.744Z,1.60
2022-09-28T15:59:18.470Z,1.63
2022-09-28T16:01:45.711Z,3.10
2022-09-28T16:04:51.642Z,2.30
2022-09-28T16:07:45.510Z,2.42
2022-09-28T16:10:12.065Z,3.42
2022-09-28T16:12:58.833Z,1.95
2022-09-28T16:15:29.279Z,2.95
2022-09-28T16:18:02.538Z,2.88
2022-09-28T16:20:37.862Z,3.10
2022-09-28T16:23:16.565Z,2.92
2022-09-28T16:25:53.111Z,2.47
2022-09-28T16:28:37.698Z,4.68
2022-09-28T16:31:13.388Z,4.13
2022-09-28T16:34:30.295Z,4.28
2022-09-28T16:36:56.828Z,3.58
2022-09-28T16:39:23.352Z,4.07
2022-09-28T16:41:55.546Z,3.88
2022-09-28T16:44:25.994Z,3.85
2022-09-28T16:46:55.077Z,3.83
2022-09-28T16:49:23.699Z,4.13
2022-09-28T16:51:50.203Z,4.22
2022-09-28T16:54:40.453Z,5.85
2022-09-28T16:57:08.867Z,4.68
2022-09-28T16:59:38.324Z,5.65
2022-09-28T17:05:16.783Z,4.53
2022-09-28T17:07:44.159Z,3.70
2022-09-28T17:10:45.035Z,5.57
2022-09-28T17:13:33.518Z,6.28
2022-09-28T17:16:02.726Z,7.25
2022-09-28T17:18:31.777Z,5.60
2022-09-28T17:21:00.457Z,5.95
2022-09-28T17:23:26.931Z,6.30
2022-09-28T17:25:55.456Z,5.50
2022-09-28T17:28:24.652Z,5.70
2022-09-28T17:30:51.741Z,4.90
2022-09-28T17:33:18.387Z,5.32
2022-09-28T17:35:45.307Z,5.45
2022-09-28T17:38:12.814Z,5.53
2022-09-28T17:40:39.946Z,4.65
2022-09-28T17:43:06.458Z,5.95
2022-09-28T17:45:35.807Z,5.13
2022-09-28T17:50:32.338Z,5.45
2022-09-28T17:52:59.945Z,6.93
2022-09-28T17:55:28.617Z,6.97
2022-09-28T17:57:55.874Z,6.20
2022-09-28T18:00:27.367Z,5.13
2022-09-28T18:02:54.775Z,4.60
2022-09-28T18:05:23.332Z,7.25
2022-09-28T18:07:50.060Z,6.35
2022-09-28T18:10:23.676Z,6.53
2022-09-28T18:12:50.815Z,5.43
2022-09-28T18:15:20.929Z,5.28
2022-09-28T18:17:47.433Z,5.43
2022-09-28T18:20:14.389Z,4.88
2022-09-28T18:22:40.846Z,6.63
2022-09-28T18:25:07.731Z,6.20
2022-09-28T18:27:34.929Z,5.15
2022-09-28T18:30:01.649Z,5.60
2022-09-28T18:32:28.127Z,5.85
2022-09-28T18:34:54.586Z,5.55
2022-09-28T18:37:21.098Z,6.43
2022-09-28T18:39:47.613Z,6.30
2022-09-28T18:42:14.871Z,6.68
2022-09-28T18:44:41.321Z,6.82
2022-09-28T18:47:07.750Z,7.43
2022-09-28T18:49:34.475Z,5.43
2022-09-28T18:52:01.421Z,7.63
2022-09-28T18:54:27.984Z,6.18
2022-09-28T18:56:56.300Z,7.30
2022-09-28T18:59:23.431Z,6.55
2022-09-28T19:01:50.114Z,6.90
2022-09-28T19:04:17.062Z,7.57
2022-09-28T19:06:44.566Z,8.02
2022-09-28T19:09:11.651Z,8.75
2022-09-28T19:11:38.159Z,6.57
2022-09-28T19:14:04.590Z,11.05
2022-09-28T19:16:33.595Z,6.35
2022-09-28T19:19:02.970Z,7.05
2022-09-28T19:23:56.284Z,12.20
2022-09-28T19:26:27.390Z,6.93
2022-09-28T19:28:55.729Z,7.60
2022-09-28T19:31:22.963Z,9.98
2022-09-28T19:33:50.392Z,11.27
2022-09-28T19:36:19.369Z,7.57
2022-09-28T19:38:46.174Z,6.93
2022-09-28T19:41:43.956Z,7.40
2022-09-28T19:44:31.144Z,7.40
2022-09-28T19:47:07.225Z,6.60
2022-09-28T19:49:38.602Z,6.85
2022-09-28T19:52:16.574Z,6.20
2022-09-28T19:54:56.914Z,7.72
2022-09-28T19:57:25.841Z,7.65
2022-09-28T19:59:54.965Z,7.13
2022-09-28T20:02:23.373Z,7.03
2022-09-28T20:04:52.670Z,10.30
2022-09-28T20:07:19.112Z,6.30
2022-09-28T20:09:45.565Z,7.68
2022-09-28T20:12:12.024Z,6.88
2022-09-28T20:14:40.403Z,7.68
2022-09-28T20:17:07.701Z,8.57
2022-09-28T20:19:34.928Z,9.05
2022-09-28T20:22:02.993Z,7.50
2022-09-28T20:24:31.001Z,7.63
2022-09-28T20:26:58.000Z,10.25
2022-09-28T20:29:24.852Z,8.27
2022-09-28T20:31:51.851Z,7.78
2022-09-28T20:34:18.608Z,7.85
2022-09-28T20:36:45.089Z,13.68
2022-09-28T20:39:12.193Z,9.60
2022-09-28T20:41:39.142Z,7.50
2022-09-28T20:44:06.721Z,6.95
2022-09-28T20:46:37.019Z,10.75
2022-09-28T20:49:04.565Z,7.70
2022-09-28T20:51:31.143Z,8.45
2022-09-28T20:53:59.160Z,8.93
2022-09-28T20:56:31.320Z,9.10
2022-09-28T20:58:57.787Z,8.15
2022-09-28T21:01:26.253Z,9.52
2022-09-28T21:03:53.840Z,7.00
2022-09-28T21:06:22.024Z,7.90
2022-09-28T21:08:49.604Z,14.95
2022-09-28T21:11:22.251Z,6.40
2022-09-28T21:13:52.085Z,7.75
2022-09-28T21:16:18.612Z,6.90
2022-09-28T21:18:45.227Z,7.18
2022-09-28T21:21:13.805Z,6.97
2022-09-28T21:23:40.767Z,7.13
2022-09-28T21:26:09.537Z,6.97
2022-09-28T21:28:36.766Z,7.07
2022-09-28T21:31:05.516Z,7.38
2022-09-28T21:33:32.261Z,8.40
2022-09-28T21:36:03.853Z,7.93
2022-09-28T21:38:30.649Z,6.43
2022-09-28T21:40:58.605Z,6.00
2022-09-28T21:43:26.415Z,7.13
2022-09-28T21:45:54.217Z,8.90
2022-09-28T21:48:21.512Z,7.93
2022-09-28T21:50:59.364Z,8.23
2022-09-28T21:53:28.941Z,6.90
2022-09-28T21:55:56.116Z,7.43
2022-09-28T21:58:25.163Z,7.68
2022-09-28T22:00:58.246Z,7.65
2022-09-28T22:03:25.747Z,7.45
2022-09-28T22:05:52.385Z,7.50
2022-09-28T22:08:19.653Z,6.85
2022-09-28T22:10:46.342Z,6.32
2022-09-28T22:13:12.811Z,6.00
2022-09-28T22:15:39.303Z,5.82
2022-09-28T22:18:05.834Z,5.95
2022-09-28T22:20:32.367Z,6.10
2022-09-28T22:22:58.830Z,6.18
2022-09-28T22:25:25.290Z,6.25
2022-09-28T22:27:51.793Z,6.93
2022-09-28T22:30:18.285Z,8.27
2022-09-28T22:32:44.748Z,5.97
2022-09-28T22:35:11.995Z,6.28
2022-09-28T22:37:38.432Z,6.45
2022-09-28T22:40:05.470Z,5.93
2022-09-28T22:42:32.546Z,8.68
2022-09-28T22:44:58.997Z,6.18
2022-09-28T22:47:25.458Z,7.57
2022-09-28T22:49:51.991Z,5.85
2022-09-28T22:52:18.645Z,5.78
2022-09-28T22:54:46.104Z,7.25
2022-09-28T22:57:12.789Z,6.13
2022-09-28T22:59:39.253Z,5.93
2022-09-28T23:02:05.788Z,5.10
2022-09-28T23:04:32.243Z,6.20
2022-09-28T23:06:58.675Z,6.50
2022-09-28T23:09:25.184Z,5.57
2022-09-28T23:11:51.702Z,5.97
2022-09-28T23:14:18.157Z,7.00
2022-09-28T23:16:44.592Z,6.30
2022-09-28T23:19:11.065Z,5.95
2022-09-28T23:21:37.881Z,8.10
2022-09-28T23:24:04.306Z,7.28
2022-09-28T23:26:31.917Z,7.10
2022-09-28T23:28:59.436Z,7.13
2022-09-28T23:31:28.474Z,5.63
2022-09-28T23:34:02.980Z,6.63
2022-09-28T23:36:30.498Z,5.65
2022-09-28T23:38:57.967Z,5.55
2022-09-28T23:41:24.489Z,6.65
2022-09-28T23:43:50.996Z,6.97
2022-09-28T23:46:20.952Z,6.50
2022-09-28T23:48:48.397Z,5.80
2022-09-28T23:51:14.828Z,6.05
2022-09-28T23:53:41.417Z,6.68
2022-09-28T23:56:07.974Z,5.63
2022-09-28T23:58:34.496Z,5.53
